Weather Data

Pearl Creek Farm: 8878 N Farm Road 75, Walnut Grove MO 65770

<== Previous Day (Tuesday 26 Jun 2018) | Next Day (Thursday 28 Jun 2018) ==>

Summary Precipitation Data For Wednesday 27 June 2018

ElementValueUnits
Precipitation0.37"
NotesRain yesterday morning, storms yesterday afternoon and into the evening. Still wet outside and partly cloudy.
SourcePearl Creek Farm

Summary Temperature Data For Wednesday 27 June 2018

ElementValueUnits
High Temperature94 oF
Low Temperature71 oF
Average Temperature84 oF
High Humidity87 %
Low Humidity52 %
Average Humidity67 %
SourceSpringfield-Branson National Airport (SGF)

Detail Temperature Data For Wednesday 27 June 2018

Date / TimeTemp (F)RH (%)Dew Pt (F)Report Date / TimeSource
2018-06-27 00:52:00 72 79 65.0 2019-02-02 11:24:24.260017 Springfield-Branson National Airport (SGF)
2018-06-27 01:52:00 73 79 66.0 2019-02-02 11:24:24.260017 Springfield-Branson National Airport (SGF)
2018-06-27 02:52:00 73 81 67.0 2019-02-02 11:24:24.260017 Springfield-Branson National Airport (SGF)
2018-06-27 03:52:00 72 82 66.0 2019-02-02 11:24:24.260017 Springfield-Branson National Airport (SGF)
2018-06-27 04:52:00 71 87 67.0 2019-02-02 11:24:24.260017 Springfield-Branson National Airport (SGF)
2018-06-27 05:52:00 73 81 67.0 2019-02-02 11:24:24.260017 Springfield-Branson National Airport (SGF)
2018-06-27 06:52:00 76 79 69.0 2019-02-02 11:24:24.260017 Springfield-Branson National Airport (SGF)
2018-06-27 07:52:00 83 65 70.0 2019-02-02 11:24:24.260017 Springfield-Branson National Airport (SGF)
2018-06-27 08:52:00 84 63 70.0 2019-02-02 11:24:24.260017 Springfield-Branson National Airport (SGF)
2018-06-27 09:52:00 88 59 72.0 2019-02-02 11:24:24.260017 Springfield-Branson National Airport (SGF)
2018-06-27 10:52:00 90 56 72.0 2019-02-02 11:24:24.260017 Springfield-Branson National Airport (SGF)
2018-06-27 11:52:00 91 56 73.0 2019-02-02 11:24:24.260017 Springfield-Branson National Airport (SGF)
2018-06-27 12:52:00 93 54 74.0 2019-02-02 11:24:24.260017 Springfield-Branson National Airport (SGF)
2018-06-27 13:52:00 93 54 74.0 2019-02-02 11:24:24.260017 Springfield-Branson National Airport (SGF)
2018-06-27 14:52:00 94 52 74.0 2019-02-02 11:24:24.260017 Springfield-Branson National Airport (SGF)
2018-06-27 15:52:00 94 54 75.0 2019-02-02 11:24:24.260017 Springfield-Branson National Airport (SGF)
2018-06-27 16:52:00 93 56 75.0 2019-02-02 11:24:24.260017 Springfield-Branson National Airport (SGF)
2018-06-27 17:52:00 93 56 75.0 2019-02-02 11:24:24.260017 Springfield-Branson National Airport (SGF)
2018-06-27 18:52:00 90 62 75.0 2019-02-02 11:24:24.260017 Springfield-Branson National Airport (SGF)
2018-06-27 19:52:00 87 67 75.0 2019-02-02 11:24:24.260017 Springfield-Branson National Airport (SGF)
2018-06-27 20:52:00 84 74 75.0 2019-02-02 11:24:24.260017 Springfield-Branson National Airport (SGF)
2018-06-27 21:52:00 84 72 74.0 2019-02-02 11:24:24.260017 Springfield-Branson National Airport (SGF)
2018-06-27 22:52:00 83 72 73.0 2019-02-02 11:24:24.260017 Springfield-Branson National Airport (SGF)
2018-06-27 23:52:00 80 79 73.0 2019-02-02 11:24:24.260017 Springfield-Branson National Airport (SGF)

A total of 24 rows are displayed.